»·PEaware :: N484G KBFL-KMHV

N484G :: KBFL-KMHV

FLIGHT INFORMATION

Flight Status: Arrived
Operator: Privately registered:
United States
More flights under this callsign
Pilot: Mike M. (16686)
Aircraft: CESSNA 172 SKYHAWK
(C172)
More flights by this aircraft type
Origin: KBFL Meadows
United States
Destination: KMHV Mojave
United States
More flights between these airports :: More routes between these airports
Route: +
File this flight plan on PilotEdge
Remarks: CAT 6
Altitude:
(Current/Filed)
7,500ft
Speed:
(Current/Filed)
115kts
Departed: 05-Oct-17 10:02 PM
Arrived: 05-Oct-17 10:36 PM
Distance/Time
Traveled:
50nm/0:34
Distance/Time
To Go:
Arrived

Flight Plot

Page will automatically refresh every two minutes.


Map Options




Map Legend


Flown Route
Filed Route
Departure Airport
Arrival Airport
Navaid (VOR, NDB)
Fix

Horizontal Profiles

Position Reports

Time Latitude Longitude Heading Altitude Ground
Speed
05-Oct-17 21:52 35.435681 -119.052059 179 504ft 0kts
05-Oct-17 21:53 35.435681 -119.052059 179 504ft 0kts
05-Oct-17 21:54 35.435681 -119.052059 179 504ft 0kts
05-Oct-17 21:55 35.435681 -119.052059 179 504ft 0kts
05-Oct-17 21:56 35.435681 -119.052059 179 504ft 0kts
05-Oct-17 21:57 35.435681 -119.052059 179 504ft 0kts
05-Oct-17 21:58 35.435681 -119.052059 179 504ft 0kts
05-Oct-17 21:59 35.435519 -119.052295 265 503ft 7kts
05-Oct-17 22:00 35.434874 -119.053920 224 496ft 5kts
05-Oct-17 22:01 35.432655 -119.052567 135 493ft 14kts
05-Oct-17 22:02 35.429267 -119.048460 135 489ft 19kts
05-Oct-17 22:03 35.425941 -119.044514 150 481ft 11kts
05-Oct-17 22:04 35.425490 -119.044563 294 479ft 0kts
05-Oct-17 22:05 35.425521 -119.044719 268 479ft 2kts
05-Oct-17 22:06 35.428843 -119.050163 316 482ft 73kts
05-Oct-17 22:07 35.445547 -119.066980 15 1197ft 82kts
05-Oct-17 22:08 35.437231 -119.044280 134 1444ft 93kts
05-Oct-17 22:09 35.419460 -119.022241 134 1828ft 89kts
05-Oct-17 22:10 35.406328 -118.999901 112 2664ft 78kts
05-Oct-17 22:11 35.398599 -118.975697 107 3451ft 74kts
05-Oct-17 22:12 35.392421 -118.955480 107 4024ft 80kts
05-Oct-17 22:13 35.382226 -118.924950 112 4731ft 87kts
05-Oct-17 22:14 35.372971 -118.902235 112 5191ft 92kts
05-Oct-17 22:15 35.361317 -118.873818 112 5729ft 92kts
05-Oct-17 22:16 35.349967 -118.846357 111 6318ft 89kts
05-Oct-17 22:17 35.338562 -118.818720 112 6840ft 93kts
05-Oct-17 22:18 35.326747 -118.790251 112 7342ft 94kts
05-Oct-17 22:19 35.313826 -118.759082 113 7536ft 112kts
05-Oct-17 22:20 35.299406 -118.724589 113 7549ft 114kts
05-Oct-17 22:21 35.284757 -118.689476 114 7566ft 116kts
05-Oct-17 22:22 35.270015 -118.654402 122 7562ft 115kts
05-Oct-17 22:23 35.252831 -118.621695 120 7581ft 114kts
05-Oct-17 22:24 35.235857 -118.589039 120 7598ft 114kts
05-Oct-17 22:25 35.218981 -118.556167 119 7614ft 114kts
05-Oct-17 22:26 35.202415 -118.523526 129 7597ft 113kts
05-Oct-17 22:27 35.182755 -118.493142 121 7367ft 113kts
05-Oct-17 22:28 35.173641 -118.456373 106 7413ft 114kts
05-Oct-17 22:29 35.162156 -118.420133 107 7501ft 115kts
05-Oct-17 22:30 35.149886 -118.383806 116 7539ft 117kts
05-Oct-17 22:31 35.132221 -118.350477 120 7542ft 116kts
05-Oct-17 22:32 35.115672 -118.317123 118 7382ft 115kts
05-Oct-17 22:33 35.098400 -118.283893 127 6788ft 114kts
05-Oct-17 22:34 35.086443 -118.249264 97 5916ft 113kts
05-Oct-17 22:35 35.080572 -118.211326 100 4941ft 112kts
05-Oct-17 22:36 35.074090 -118.175410 102 3977ft 102kts
05-Oct-17 22:37 35.068570 -118.146511 101 3777ft 81kts
05-Oct-17 22:38 35.066285 -118.118968 91 3551ft 81kts
05-Oct-17 22:39 35.059107 -118.128011 272 3086ft 71kts
05-Oct-17 22:40 35.059194 -118.147991 269 2746ft 30kts
05-Oct-17 22:41 35.058724 -118.150188 134 2749ft 0kts
05-Oct-17 22:42 35.057496 -118.150775 267 2748ft 9kts
05-Oct-17 22:43 35.057026 -118.150980 87 2747ft 0kts
05-Oct-17 22:44 35.057026 -118.150980 87 2747ft 0kts

Navigation Log

Ident Type
1. KBFL Airport
2. KMHV Airport